createdAt,value
2023-02-26T00:00:09.792Z,-3.24
2023-02-26T00:02:38.039Z,-3.32
2023-02-26T00:05:05.195Z,-3.52
2023-02-26T00:07:33.180Z,-3.63
2023-02-26T00:10:01.414Z,-3.61
2023-02-26T00:12:30.015Z,-3.64
2023-02-26T00:14:56.903Z,-3.45
2023-02-26T00:17:24.609Z,-3.57
2023-02-26T00:19:51.254Z,-3.72
2023-02-26T00:22:17.860Z,-3.85
2023-02-26T00:24:44.391Z,-3.71
2023-02-26T00:27:12.067Z,-3.82
2023-02-26T00:29:40.653Z,-3.81
2023-02-26T00:32:08.757Z,-3.55
2023-02-26T00:34:35.503Z,-3.60
2023-02-26T00:37:11.065Z,-3.60
2023-02-26T00:39:44.181Z,-3.73
2023-02-26T00:42:10.862Z,-3.70
2023-02-26T00:44:37.530Z,-3.68
2023-02-26T00:47:08.234Z,-3.62
2023-02-26T00:49:47.383Z,-3.41
2023-02-26T00:52:16.802Z,-3.73
2023-02-26T00:54:43.245Z,-3.63
2023-02-26T00:57:09.729Z,-3.73
2023-02-26T00:59:36.242Z,-3.72
2023-02-26T01:02:02.738Z,-3.68
2023-02-26T01:04:29.389Z,-3.59
2023-02-26T01:06:57.144Z,-3.66
2023-02-26T01:09:31.115Z,-3.71
2023-02-26T01:12:01.530Z,-3.84
2023-02-26T01:14:28.950Z,-3.92
2023-02-26T01:17:17.091Z,-3.91
2023-02-26T01:19:43.589Z,-3.99
2023-02-26T01:22:14.771Z,-3.74
2023-02-26T01:24:42.102Z,-3.89
2023-02-26T01:27:10.081Z,-4.01
2023-02-26T01:29:37.088Z,-4.01
2023-02-26T01:32:15.697Z,-4.04
2023-02-26T01:34:46.184Z,-4.10
2023-02-26T01:37:13.369Z,-3.86
2023-02-26T01:39:44.065Z,-4.03
2023-02-26T01:42:22.968Z,-4.22
2023-02-26T01:45:05.881Z,-4.38
2023-02-26T01:48:03.016Z,-4.48
2023-02-26T01:50:32.186Z,-4.60
2023-02-26T01:52:59.018Z,-4.56
2023-02-26T01:55:27.254Z,-4.60
2023-02-26T01:57:55.983Z,-4.40
2023-02-26T02:00:23.714Z,-4.49
2023-02-26T02:02:50.640Z,-4.07
2023-02-26T02:05:22.333Z,-4.06
2023-02-26T02:07:48.794Z,-4.24
2023-02-26T02:10:15.264Z,-4.11
2023-02-26T02:12:48.021Z,-3.86
2023-02-26T02:15:15.367Z,-4.17
2023-02-26T02:17:57.352Z,-4.34
2023-02-26T02:20:40.672Z,-4.19
2023-02-26T02:23:12.338Z,-4.26
2023-02-26T02:25:52.485Z,-4.38
2023-02-26T02:28:21.952Z,-4.28
2023-02-26T02:31:00.663Z,-4.66
2023-02-26T02:33:31.553Z,-4.71
2023-02-26T02:36:01.742Z,-4.58
2023-02-26T02:38:33.547Z,-4.74
2023-02-26T02:41:07.494Z,-4.82
2023-02-26T02:43:36.565Z,-4.96
2023-02-26T02:46:08.687Z,-4.95
2023-02-26T02:48:39.964Z,-5.15
2023-02-26T02:51:09.262Z,-5.04
2023-02-26T02:53:38.942Z,-5.22
2023-02-26T02:56:10.179Z,-5.14
2023-02-26T02:58:41.702Z,-4.75
2023-02-26T03:01:11.027Z,-4.91
2023-02-26T03:03:43.377Z,-5.01
2023-02-26T03:06:09.959Z,-4.98
2023-02-26T03:08:38.619Z,-5.09
2023-02-26T03:11:05.137Z,-5.31
2023-02-26T03:13:31.907Z,-5.29
2023-02-26T03:16:04.500Z,-5.27
2023-02-26T03:18:41.831Z,-5.28
2023-02-26T03:21:14.736Z,-5.19
2023-02-26T03:23:47.955Z,-5.25
2023-02-26T03:26:47.462Z,-5.23
2023-02-26T03:29:26.829Z,-5.20
2023-02-26T03:31:53.340Z,-5.10
2023-02-26T03:34:24.873Z,-5.12
2023-02-26T03:37:02.110Z,-5.03
2023-02-26T03:39:35.608Z,-4.85
2023-02-26T03:42:04.988Z,-4.75
2023-02-26T03:44:33.722Z,-4.68
2023-02-26T03:47:01.934Z,-4.57
2023-02-26T03:49:34.592Z,-4.44
2023-02-26T03:52:02.204Z,-4.23
2023-02-26T03:54:37.574Z,-4.07
2023-02-26T03:57:05.735Z,-3.88
2023-02-26T03:59:33.203Z,-3.82
2023-02-26T04:02:03.706Z,-3.82
2023-02-26T04:04:33.034Z,-3.81
2023-02-26T04:07:00.205Z,-3.63
2023-02-26T04:09:28.390Z,-3.76
2023-02-26T04:11:56.551Z,-3.95
2023-02-26T04:14:24.306Z,-4.02
2023-02-26T04:16:50.800Z,-3.84
2023-02-26T04:19:17.398Z,-3.60
2023-02-26T04:21:43.862Z,-3.41
2023-02-26T04:24:10.864Z,-3.39
2023-02-26T04:26:37.795Z,-3.22
2023-02-26T04:29:06.924Z,-3.14
2023-02-26T04:31:33.526Z,-3.28
2023-02-26T04:34:00.012Z,-3.27
2023-02-26T04:36:26.872Z,-3.09
2023-02-26T04:38:53.684Z,-3.09
2023-02-26T04:41:20.122Z,-2.94
2023-02-26T04:43:47.779Z,-2.87
2023-02-26T04:46:14.340Z,-2.92
2023-02-26T04:48:42.030Z,-2.75
2023-02-26T04:51:09.927Z,-2.53
2023-02-26T04:53:37.656Z,-2.62
2023-02-26T04:56:04.201Z,-2.66
2023-02-26T04:58:32.208Z,-2.72
2023-02-26T05:00:58.821Z,-2.65
2023-02-26T05:03:25.497Z,-2.53
2023-02-26T05:05:51.953Z,-2.43
2023-02-26T05:08:18.460Z,-2.64
2023-02-26T05:10:45.669Z,-2.63
2023-02-26T05:13:13.237Z,-2.59
2023-02-26T05:15:41.069Z,-2.60
2023-02-26T05:18:08.884Z,-2.50
2023-02-26T05:20:35.420Z,-2.58
2023-02-26T05:23:01.936Z,-2.67
2023-02-26T05:25:28.507Z,-2.72
2023-02-26T05:27:55.837Z,-2.69
2023-02-26T05:30:23.191Z,-2.54
2023-02-26T05:32:49.880Z,-2.44
2023-02-26T05:35:16.355Z,-2.55
2023-02-26T05:37:42.878Z,-2.66
2023-02-26T05:40:11.207Z,-2.81
2023-02-26T05:42:39.802Z,-2.99
2023-02-26T05:45:07.700Z,-2.97
2023-02-26T05:47:34.870Z,-2.81
2023-02-26T05:50:01.770Z,-3.04
2023-02-26T05:52:28.233Z,-3.06
2023-02-26T05:54:56.181Z,-3.25
2023-02-26T05:57:23.496Z,-3.34
2023-02-26T05:59:50.452Z,-3.46
2023-02-26T06:02:17.012Z,-3.17
2023-02-26T06:04:43.726Z,-3.18
2023-02-26T06:07:10.368Z,-3.17
2023-02-26T06:09:36.818Z,-3.18
2023-02-26T06:12:04.541Z,-3.18
2023-02-26T06:14:31.048Z,-3.11
2023-02-26T06:16:58.782Z,-2.98
2023-02-26T06:19:25.381Z,-2.91
2023-02-26T06:21:51.952Z,-3.03
2023-02-26T06:24:18.454Z,-2.94
2023-02-26T06:26:45.050Z,-2.89
2023-02-26T06:29:12.020Z,-2.86
2023-02-26T06:31:38.709Z,-2.68
2023-02-26T06:34:05.233Z,-2.63
2023-02-26T06:36:31.965Z,-2.69
2023-02-26T06:38:58.462Z,-2.71
2023-02-26T06:41:24.935Z,-2.77
2023-02-26T06:43:51.422Z,-2.71
2023-02-26T06:46:17.958Z,-2.56
2023-02-26T06:48:44.508Z,-2.71
2023-02-26T06:51:10.981Z,-2.80
2023-02-26T06:53:38.907Z,-2.93
2023-02-26T06:56:05.554Z,-2.90
2023-02-26T06:58:32.107Z,-2.87
2023-02-26T07:00:58.753Z,-2.64
2023-02-26T07:03:25.338Z,-2.71
2023-02-26T07:05:51.789Z,-2.70
2023-02-26T07:08:19.661Z,-2.66
2023-02-26T07:10:49.327Z,-2.70
2023-02-26T07:13:17.612Z,-2.62
2023-02-26T07:15:46.317Z,-2.46
2023-02-26T07:18:14.173Z,-2.57
2023-02-26T07:20:41.505Z,-2.61
2023-02-26T07:23:09.324Z,-2.54
2023-02-26T07:25:35.866Z,-2.56
2023-02-26T07:28:04.084Z,-2.55
2023-02-26T07:30:32.384Z,-2.38
2023-02-26T07:32:59.174Z,-2.23
2023-02-26T07:35:25.644Z,-2.32
2023-02-26T07:37:52.430Z,-2.32
2023-02-26T07:40:19.029Z,-2.23
2023-02-26T07:42:45.569Z,-2.04
2023-02-26T07:45:12.200Z,-2.13
2023-02-26T07:47:38.904Z,-2.23
2023-02-26T07:50:05.760Z,-2.30
2023-02-26T07:52:32.266Z,-2.18
2023-02-26T07:54:58.713Z,-1.91
2023-02-26T07:57:26.661Z,-1.92
2023-02-26T07:59:53.182Z,-1.93
2023-02-26T08:02:19.729Z,-1.85
2023-02-26T08:04:46.269Z,-1.75
2023-02-26T08:07:12.739Z,-1.54
2023-02-26T08:09:40.510Z,-1.59
2023-02-26T08:12:06.953Z,-1.56
2023-02-26T08:14:33.407Z,-1.56
2023-02-26T08:16:59.933Z,-1.50
2023-02-26T08:19:26.424Z,-1.24
2023-02-26T08:21:55.334Z,-1.24
2023-02-26T08:24:22.199Z,-1.27
2023-02-26T08:26:50.686Z,-1.33
2023-02-26T08:29:17.257Z,-1.10
2023-02-26T08:31:44.231Z,-1.17
2023-02-26T08:34:10.758Z,-1.22
2023-02-26T08:36:37.291Z,-1.17
2023-02-26T08:39:03.825Z,-0.94
2023-02-26T08:41:32.441Z,-0.90
2023-02-26T08:44:00.770Z,-0.78
2023-02-26T08:46:27.696Z,-0.75
2023-02-26T08:48:54.468Z,-0.60
2023-02-26T08:51:24.155Z,-0.51
2023-02-26T08:53:51.319Z,-0.47
2023-02-26T08:56:19.152Z,-0.44
2023-02-26T08:58:45.702Z,-0.23
2023-02-26T09:01:12.618Z,-0.20
2023-02-26T09:03:39.893Z,-0.24
2023-02-26T09:06:06.661Z,-0.14
2023-02-26T09:08:34.100Z,0.07
2023-02-26T09:11:01.792Z,0.17
2023-02-26T09:13:30.548Z,0.08
2023-02-26T09:15:57.712Z,0.01
2023-02-26T09:18:25.798Z,0.11
2023-02-26T09:20:52.480Z,0.19
2023-02-26T09:23:20.259Z,0.41
2023-02-26T09:25:46.815Z,0.43
2023-02-26T09:28:14.018Z,0.34
2023-02-26T09:30:42.477Z,0.50
2023-02-26T09:33:10.825Z,0.62
2023-02-26T09:35:37.364Z,0.59
2023-02-26T09:38:04.154Z,0.59
2023-02-26T09:40:39.774Z,0.74
2023-02-26T09:43:22.192Z,0.87
2023-02-26T09:45:50.712Z,0.71
2023-02-26T09:48:20.338Z,0.71
2023-02-26T09:50:49.888Z,0.87
2023-02-26T09:53:40.825Z,0.99
2023-02-26T09:56:15.633Z,0.80
2023-02-26T09:58:43.626Z,0.88
2023-02-26T10:01:22.687Z,1.07
2023-02-26T10:03:56.327Z,1.05
2023-02-26T10:06:35.022Z,0.99
2023-02-26T10:09:05.915Z,1.15
2023-02-26T10:11:35.532Z,1.29
2023-02-26T10:14:06.256Z,1.26
2023-02-26T10:16:35.973Z,1.29
2023-02-26T10:19:10.337Z,1.39
2023-02-26T10:21:36.858Z,1.45
2023-02-26T10:24:08.352Z,1.33
2023-02-26T10:26:43.161Z,1.37
2023-02-26T10:29:18.609Z,1.58
2023-02-26T10:31:52.479Z,1.52
2023-02-26T10:34:18.961Z,1.51
2023-02-26T10:36:45.403Z,1.59
2023-02-26T10:39:32.220Z,1.66
2023-02-26T10:42:01.581Z,1.59
2023-02-26T10:44:30.981Z,1.59
2023-02-26T10:47:18.328Z,1.83
2023-02-26T10:49:48.052Z,1.80
2023-02-26T10:52:19.571Z,1.77
2023-02-26T10:54:49.020Z,1.85
2023-02-26T10:57:26.316Z,2.04
2023-02-26T10:59:54.684Z,1.95
2023-02-26T11:02:36.552Z,1.85
2023-02-26T11:05:07.821Z,2.14
2023-02-26T11:07:37.289Z,2.11
2023-02-26T11:10:04.092Z,2.09
2023-02-26T11:12:32.144Z,2.09
2023-02-26T11:15:00.690Z,2.30
2023-02-26T11:17:29.576Z,2.23
2023-02-26T11:19:57.903Z,2.20
2023-02-26T11:22:26.979Z,2.20
2023-02-26T11:24:53.493Z,2.38
2023-02-26T11:27:22.262Z,2.34
2023-02-26T11:29:54.025Z,2.32
2023-02-26T11:32:22.557Z,2.28
2023-02-26T11:34:50.763Z,2.47
2023-02-26T11:37:24.446Z,2.40
2023-02-26T11:39:55.825Z,2.30
2023-02-26T11:42:22.365Z,2.38
2023-02-26T11:44:49.121Z,2.60
2023-02-26T11:47:16.888Z,2.50
2023-02-26T11:49:51.061Z,2.41
2023-02-26T11:52:44.480Z,2.54
2023-02-26T11:55:23.808Z,2.64
2023-02-26T11:57:54.216Z,2.59
2023-02-26T12:00:23.780Z,2.65
2023-02-26T12:02:50.315Z,2.81
2023-02-26T12:05:18.212Z,2.74
2023-02-26T12:07:46.921Z,2.74
2023-02-26T12:10:20.106Z,2.93
2023-02-26T12:13:05.346Z,2.99
2023-02-26T12:15:45.667Z,2.84
2023-02-26T12:18:15.845Z,2.86
2023-02-26T12:20:52.764Z,3.09
2023-02-26T12:23:35.087Z,3.00
2023-02-26T12:26:02.898Z,2.96
2023-02-26T12:28:48.569Z,3.03
2023-02-26T12:31:17.105Z,3.13
2023-02-26T12:33:58.864Z,3.08
2023-02-26T12:36:49.802Z,3.09
2023-02-26T12:39:35.263Z,3.23
2023-02-26T12:42:18.443Z,3.16
2023-02-26T12:44:57.068Z,3.19
2023-02-26T12:47:23.559Z,3.26
2023-02-26T12:50:08.894Z,3.16
2023-02-26T12:52:52.073Z,3.16
2023-02-26T12:55:34.924Z,3.37
2023-02-26T12:58:33.101Z,3.24
2023-02-26T13:00:59.630Z,3.24
2023-02-26T13:03:44.770Z,3.51
2023-02-26T13:06:43.639Z,3.45
2023-02-26T13:09:10.178Z,3.33
2023-02-26T13:11:55.623Z,3.44
2023-02-26T13:14:31.309Z,3.46
2023-02-26T13:16:58.391Z,3.37
2023-02-26T13:19:51.358Z,3.37
2023-02-26T13:22:25.539Z,3.64
2023-02-26T13:24:51.972Z,3.45
2023-02-26T13:27:20.109Z,3.39
2023-02-26T13:29:48.638Z,3.58
2023-02-26T13:32:21.464Z,3.57
2023-02-26T13:34:59.924Z,3.28
2023-02-26T13:37:30.699Z,3.44
2023-02-26T13:40:19.563Z,3.63
2023-02-26T13:42:49.027Z,3.49
2023-02-26T13:45:34.363Z,3.50
2023-02-26T13:48:03.995Z,3.69
2023-02-26T13:50:49.309Z,3.56
2023-02-26T13:53:26.971Z,3.41
2023-02-26T13:55:55.538Z,3.54
2023-02-26T13:58:22.024Z,3.62
2023-02-26T14:01:09.119Z,3.48
2023-02-26T14:03:37.576Z,3.54
2023-02-26T14:06:25.784Z,3.63
2023-02-26T14:08:54.326Z,3.48
2023-02-26T14:11:30.517Z,3.50
2023-02-26T14:14:05.922Z,3.64
2023-02-26T14:16:34.523Z,3.46
2023-02-26T14:19:24.399Z,3.47
2023-02-26T14:21:55.417Z,3.70
2023-02-26T14:24:36.540Z,3.50
2023-02-26T14:27:13.777Z,3.36
2023-02-26T14:29:44.823Z,3.55
2023-02-26T14:32:11.333Z,3.41
2023-02-26T14:34:44.260Z,3.34
2023-02-26T14:37:15.699Z,3.55
2023-02-26T14:39:43.432Z,3.40
2023-02-26T14:42:16.526Z,3.34
2023-02-26T14:44:45.300Z,3.53
2023-02-26T14:47:12.564Z,3.30
2023-02-26T14:49:41.464Z,3.31
2023-02-26T14:52:27.518Z,3.47
2023-02-26T14:55:00.009Z,3.27
2023-02-26T14:57:27.950Z,3.42
2023-02-26T14:59:55.915Z,3.38
2023-02-26T15:02:28.418Z,3.22
2023-02-26T15:05:14.272Z,3.43
2023-02-26T15:07:43.640Z,3.25
2023-02-26T15:10:10.103Z,3.18
2023-02-26T15:12:36.632Z,3.37
2023-02-26T15:15:10.652Z,3.15
2023-02-26T15:17:40.428Z,3.09
2023-02-26T15:20:26.959Z,3.23
2023-02-26T15:23:08.887Z,2.99
2023-02-26T15:25:36.793Z,3.01
2023-02-26T15:28:06.680Z,3.08
2023-02-26T15:30:34.510Z,2.84
2023-02-26T15:33:03.712Z,2.82
2023-02-26T15:35:32.818Z,2.96
2023-02-26T15:38:01.326Z,2.76
2023-02-26T15:40:31.709Z,2.70
2023-02-26T15:42:59.173Z,2.85
2023-02-26T15:45:35.981Z,2.63
2023-02-26T15:48:04.567Z,2.61
2023-02-26T15:50:33.964Z,2.82
2023-02-26T15:53:03.763Z,2.62
2023-02-26T15:55:36.314Z,2.59
2023-02-26T15:58:05.452Z,2.76
2023-02-26T16:00:33.164Z,2.63
2023-02-26T16:02:59.792Z,2.49
2023-02-26T16:05:27.047Z,2.63
2023-02-26T16:07:54.230Z,2.57
2023-02-26T16:10:35.415Z,2.42
2023-02-26T16:13:02.348Z,2.47
2023-02-26T16:15:34.001Z,2.53
2023-02-26T16:18:02.001Z,2.33
2023-02-26T16:20:32.743Z,2.30
2023-02-26T16:23:05.579Z,2.46
2023-02-26T16:25:51.840Z,2.28
2023-02-26T16:28:28.629Z,2.32
2023-02-26T16:30:57.506Z,2.45
2023-02-26T16:33:26.432Z,2.29
2023-02-26T16:36:03.431Z,2.24
2023-02-26T16:38:51.012Z,2.42
2023-02-26T16:41:22.604Z,2.26
2023-02-26T16:43:49.354Z,2.20
2023-02-26T16:46:28.780Z,2.42
2023-02-26T16:48:58.192Z,2.21
2023-02-26T16:51:25.719Z,2.03
2023-02-26T16:54:06.128Z,2.14
2023-02-26T16:56:34.541Z,1.93
2023-02-26T16:59:05.151Z,1.70
2023-02-26T17:01:35.422Z,1.73
2023-02-26T17:04:03.910Z,1.79
2023-02-26T17:06:31.435Z,1.62
2023-02-26T17:08:59.065Z,1.55
2023-02-26T17:11:34.579Z,1.66
2023-02-26T17:14:04.303Z,1.39
2023-02-26T17:16:30.809Z,1.29
2023-02-26T17:18:57.482Z,1.41
2023-02-26T17:21:24.283Z,1.26
2023-02-26T17:23:51.022Z,1.15
2023-02-26T17:26:18.858Z,1.15
2023-02-26T17:28:46.074Z,1.18
2023-02-26T17:31:14.601Z,1.08
2023-02-26T17:33:42.030Z,0.97
2023-02-26T17:36:21.708Z,1.17
2023-02-26T17:38:48.525Z,1.13
2023-02-26T17:41:17.924Z,1.08
2023-02-26T17:43:44.598Z,1.12
2023-02-26T17:46:12.422Z,1.20
2023-02-26T17:48:39.102Z,1.10
2023-02-26T17:51:06.058Z,1.03
2023-02-26T17:53:40.965Z,1.23
2023-02-26T17:56:37.372Z,1.17
2023-02-26T17:59:05.085Z,1.04
2023-02-26T18:01:31.653Z,1.13
2023-02-26T18:04:00.999Z,1.18
2023-02-26T18:06:30.813Z,0.97
2023-02-26T18:08:58.701Z,0.82
2023-02-26T18:11:26.236Z,0.83
2023-02-26T18:13:55.379Z,0.81
2023-02-26T18:16:23.711Z,0.66
2023-02-26T18:18:50.847Z,0.65
2023-02-26T18:21:17.427Z,0.88
2023-02-26T18:23:45.257Z,0.78
2023-02-26T18:26:12.633Z,0.72
2023-02-26T18:28:40.833Z,0.74
2023-02-26T18:31:09.920Z,0.91
2023-02-26T18:33:38.697Z,0.71
2023-02-26T18:36:06.162Z,0.63
2023-02-26T18:38:33.017Z,0.77
2023-02-26T18:41:02.006Z,0.86
2023-02-26T18:43:30.162Z,0.77
2023-02-26T18:46:01.341Z,0.82
2023-02-26T18:48:28.363Z,1.02
2023-02-26T18:50:55.889Z,1.02
2023-02-26T18:53:23.814Z,1.09
2023-02-26T18:55:54.055Z,1.26
2023-02-26T18:58:21.017Z,1.30
2023-02-26T19:00:48.694Z,1.17
2023-02-26T19:03:15.296Z,1.26
2023-02-26T19:05:42.373Z,1.30
2023-02-26T19:08:09.314Z,1.20
2023-02-26T19:10:35.899Z,1.16
2023-02-26T19:13:04.083Z,1.34
2023-02-26T19:15:30.915Z,1.23
2023-02-26T19:17:57.629Z,1.21
2023-02-26T19:20:24.157Z,1.50
2023-02-26T19:22:50.714Z,1.65
2023-02-26T19:25:25.285Z,1.44
2023-02-26T19:27:53.530Z,1.39
2023-02-26T19:30:20.874Z,1.52
2023-02-26T19:32:47.860Z,1.33
2023-02-26T19:35:14.339Z,1.31
2023-02-26T19:37:40.892Z,1.44
2023-02-26T19:40:12.885Z,1.15
2023-02-26T19:42:39.930Z,1.10
2023-02-26T19:45:06.701Z,1.25
2023-02-26T19:47:33.184Z,1.31
2023-02-26T19:49:59.750Z,1.25
2023-02-26T19:52:28.144Z,1.25
2023-02-26T19:54:54.594Z,1.42
2023-02-26T19:57:22.488Z,1.27
2023-02-26T19:59:50.244Z,1.21
2023-02-26T20:02:16.726Z,1.36
2023-02-26T20:04:43.198Z,1.44
2023-02-26T20:07:10.769Z,1.31
2023-02-26T20:09:37.320Z,1.20
2023-02-26T20:12:03.847Z,1.39
2023-02-26T20:14:30.299Z,1.29
2023-02-26T20:16:56.860Z,1.23
2023-02-26T20:19:23.386Z,1.29
2023-02-26T20:21:51.573Z,1.42
2023-02-26T20:24:20.117Z,1.19
2023-02-26T20:26:49.010Z,1.22
2023-02-26T20:29:18.473Z,1.32
2023-02-26T20:31:47.309Z,1.15
2023-02-26T20:34:15.137Z,1.10
2023-02-26T20:36:44.241Z,1.26
2023-02-26T20:39:12.113Z,1.20
2023-02-26T20:41:38.566Z,1.17
2023-02-26T20:44:05.081Z,1.34
2023-02-26T20:46:33.077Z,1.29
2023-02-26T20:48:59.861Z,1.18
2023-02-26T20:51:26.712Z,1.18
2023-02-26T20:53:53.493Z,1.36
2023-02-26T20:56:21.345Z,1.23
2023-02-26T20:58:47.853Z,1.22
2023-02-26T21:01:14.377Z,1.38
2023-02-26T21:03:41.089Z,1.29
2023-02-26T21:06:08.320Z,1.41
2023-02-26T21:08:34.837Z,1.53
2023-02-26T21:11:01.893Z,1.66
2023-02-26T21:13:29.992Z,1.70
2023-02-26T21:15:57.367Z,1.90
2023-02-26T21:18:23.926Z,2.13
2023-02-26T21:20:50.883Z,2.19
2023-02-26T21:23:18.413Z,2.14
2023-02-26T21:25:46.086Z,2.34
2023-02-26T21:28:13.362Z,2.38
2023-02-26T21:30:42.502Z,2.45
2023-02-26T21:33:09.529Z,2.64
2023-02-26T21:35:36.116Z,2.65
2023-02-26T21:38:02.609Z,2.68
2023-02-26T21:40:30.483Z,2.78
2023-02-26T21:42:57.139Z,2.95
2023-02-26T21:45:23.656Z,2.82
2023-02-26T21:47:50.193Z,2.87
2023-02-26T21:50:16.825Z,2.98
2023-02-26T21:52:43.409Z,2.83
2023-02-26T21:55:11.496Z,2.83
2023-02-26T21:57:37.987Z,3.03
2023-02-26T22:00:06.256Z,2.97
2023-02-26T22:02:32.805Z,2.95
2023-02-26T22:05:00.217Z,3.15
2023-02-26T22:07:26.918Z,2.96
2023-02-26T22:09:53.411Z,2.83
2023-02-26T22:12:20.072Z,2.99
2023-02-26T22:14:46.725Z,3.02
2023-02-26T22:17:13.169Z,2.79
2023-02-26T22:19:41.141Z,2.82
2023-02-26T22:22:07.699Z,2.79
2023-02-26T22:24:35.633Z,2.74
2023-02-26T22:27:03.221Z,2.88
2023-02-26T22:29:31.446Z,3.06
2023-02-26T22:31:58.108Z,2.83
2023-02-26T22:34:25.016Z,2.78
2023-02-26T22:36:52.273Z,2.98
2023-02-26T22:39:19.236Z,2.84
2023-02-26T22:41:47.237Z,2.62
2023-02-26T22:44:14.990Z,2.81
2023-02-26T22:46:42.657Z,2.47
2023-02-26T22:49:09.479Z,2.15
2023-02-26T22:51:36.055Z,2.21
2023-02-26T22:54:02.829Z,2.16
2023-02-26T22:56:29.392Z,1.95
2023-02-26T22:58:56.824Z,2.13
2023-02-26T23:01:24.902Z,2.04
2023-02-26T23:03:53.177Z,1.79
2023-02-26T23:06:19.617Z,1.72
2023-02-26T23:08:46.099Z,1.91
2023-02-26T23:11:12.897Z,1.88
2023-02-26T23:13:39.573Z,2.20
2023-02-26T23:16:07.796Z,2.53
2023-02-26T23:18:36.478Z,2.74
2023-02-26T23:21:03.455Z,2.84
2023-02-26T23:23:31.932Z,3.02
2023-02-26T23:25:58.370Z,2.96
2023-02-26T23:28:25.509Z,2.91
2023-02-26T23:30:52.317Z,2.99
2023-02-26T23:33:18.853Z,3.12
2023-02-26T23:35:45.328Z,3.11
2023-02-26T23:38:11.849Z,3.35
2023-02-26T23:40:38.341Z,3.36
2023-02-26T23:43:04.829Z,3.31
2023-02-26T23:45:31.361Z,3.34
2023-02-26T23:47:57.837Z,3.58
2023-02-26T23:50:24.377Z,3.50
2023-02-26T23:52:50.956Z,3.47
2023-02-26T23:55:17.680Z,3.51
2023-02-26T23:57:44.581Z,3.45
